Flight Track Log - Related Links

Times and Time Zones

All times are in EDT time to prevent confusion due to time zone crossing. See the JBU348 flight status page for this flight to view local times or setup timezone preferences in your user account.

Time Position Orientation Groundspeed Altitude Reporting Facility
EDT Latitude Longitude Course Direction KTS MPH feet Rate Location/Type
Fri 09:20:06 PM 27.3833 -82.5500 North 161 185 700  Level Tampa TRACON
Fri 09:21:00 PM 27.3667 -82.5000 111° Southeast 178 205 1,900 1,667 Climbing Tampa TRACON
Fri 09:21:54 PM 27.3167 -82.4500 138° Southeast 247 284 3,700 2,526 Climbing Tampa TRACON
Fri 09:22:54 PM 27.2833 -82.5000 233° Southwest 267 307 6,700 2,413 Climbing Tampa TRACON
Fri 09:23:00 PM 27.7369 -82.7833 North  Level FlightAware Approximate
Fri 09:24:00 PM 27.8647 -82.7833 North  Level FlightAware Approximate
Fri 09:25:00 PM 27.9924 -82.7833 North  Level FlightAware Approximate
Fri 09:25:03 PM 27.4222 -82.6047 326° Northwest 276 318 11,300  Level Miami Center
Fri 09:26:03 PM 27.5208 -82.6400 342° North 325 374 13,900 2,500 Climbing Miami Center
Fri 09:27:03 PM 27.6175 -82.6778 341° North 354 407 16,300 1,875 Climbing Miami Center
Fri 09:28:43 PM 27.7764 -82.7425 340° North 374 430 18,900 1,714 Climbing Jacksonville Center
Fri 09:29:44 PM 27.8828 -82.7822 342° North 390 449 20,900 1,800 Climbing Jacksonville Center
Fri 09:30:43 PM 28.0017 -82.7892 357° North 411 473 22,500 1,600 Climbing Jacksonville Center
Fri 09:31:44 PM 28.1186 -82.7892 360° North 411 473 24,100 1,450 Climbing Jacksonville Center
Fri 09:32:43 PM 28.2356 -82.8125 350° North 423 487 25,400 1,300 Climbing Jacksonville Center
Fri 09:33:44 PM 28.3544 -82.8478 345° North 429 494 26,700 1,289 Climbing Jacksonville Center
Fri 09:34:44 PM 28.4733 -82.8808 346° North 429 494 28,000 1,563 Climbing Jacksonville Center
Fri 09:35:43 PM 28.5922 -82.9139 346° North 434 499 29,800 1,462 Climbing Jacksonville Center
Fri 09:36:43 PM 28.7050 -82.9447 347° North 429 494 30,900 1,150 Climbing Jacksonville Center
Fri 09:37:43 PM 28.8197 -82.9803 345° North 423 487 32,100 1,041 Climbing Jacksonville Center
Fri 09:38:44 PM 28.9386 -83.0136 346° North 423 487 33,000 1,190 Climbing Jacksonville Center
Fri 09:39:44 PM 29.0536 -83.0469 346° North 423 487 34,500 1,450 Climbing Jacksonville Center
Fri 09:40:44 PM 29.1642 -83.0781 346° North 417 480 35,900 750 Climbing Jacksonville Center
Fri 09:41:44 PM 29.2747 -83.1117 345° North 412 474 36,000 50 Climbing Jacksonville Center
Fri 09:42:43 PM 29.3936 -83.1453 346° North 418 481 36,000  Level Jacksonville Center
Fri 09:43:43 PM 29.5147 -83.1814 345° North 426 490 36,000  Level Jacksonville Center
Fri 09:44:44 PM 29.6314 -83.2153 346° North 433 498 36,000  Level Jacksonville Center
Fri 09:45:43 PM 29.7483 -83.2514 345° North 433 498 36,000  Level Jacksonville Center
Fri 09:46:43 PM 29.8817 -83.2903 346° North 433 498 36,000  Level Jacksonville Center
Fri 09:47:44 PM 30.0006 -83.3242 346° North 433 498 36,000  Level Jacksonville Center
Fri 09:48:43 PM 30.1217 -83.3608 345° North 433 498 36,000  Level Jacksonville Center
Fri 09:49:44 PM 30.2383 -83.3928 347° North 433 498 36,000  Level Jacksonville Center
Fri 09:50:44 PM 30.3594 -83.4294 345° North 433 498 36,000  Level Jacksonville Center
Fri 09:51:43 PM 30.4761 -83.4614 347° North 433 498 36,000  Level Jacksonville Center
Fri 09:52:43 PM 30.5969 -83.4983 345° North 433 498 36,000  Level Jacksonville Center
Fri 09:53:44 PM 30.7139 -83.5353 345° North 433 498 36,000  Level Jacksonville Center
Fri 09:54:43 PM 30.8283 -83.5675 346° North 428 493 36,000  Level Jacksonville Center
Fri 09:55:44 PM 30.9453 -83.6047 345° North 423 487 36,000  Level Jacksonville Center
Fri 09:56:43 PM 31.0597 -83.6394 345° North 423 487 36,000  Level Jacksonville Center
Fri 09:58:17 PM 31.2244 -83.6892 346° North 409 471 36,000  Level Atlanta Center
Fri 09:59:17 PM 31.3392 -83.7253 345° North 415 478 36,000  Level Atlanta Center
Fri 10:00:17 PM 31.4542 -83.7589 346° North 415 478 36,000  Level Atlanta Center
Fri 10:01:17 PM 31.5689 -83.7975 344° North 415 478 36,000  Level Atlanta Center
Fri 10:02:17 PM 31.6922 -83.8314 347° North 423 487 36,000 200 Level Atlanta Center
Fri 10:03:17 PM 31.8361 -83.8653 349° North 452 520 36,400 550 Climbing Atlanta Center
Fri 10:04:17 PM 31.9656 -83.8625 North 462 532 37,100 800 Climbing Atlanta Center
Fri 10:05:17 PM 32.0992 -83.8622 360° North 462 532 38,000 450 Climbing Atlanta Center
Fri 10:06:17 PM 32.2286 -83.8619 360° North 462 532 38,000  Level Atlanta Center
Fri 10:07:17 PM 32.3600 -83.8642 359° North 462 532 38,000  Level Atlanta Center
Fri 10:08:18 PM 32.4936 -83.8639 360° North 462 532 38,000  Level Atlanta Center
Fri 10:09:17 PM 32.6272 -83.8686 358° North 474 545 38,000  Level Atlanta Center
Fri 10:10:17 PM 32.7631 -83.8708 359° North 479 551 38,000  Level Atlanta Center
Fri 10:11:17 PM 32.8967 -83.8781 357° North 479 551 38,000  Level Atlanta Center
Fri 10:12:17 PM 33.0303 -83.8853 357° North 479 551 38,000  Level Atlanta Center
Fri 10:13:17 PM 33.1639 -83.8950 357° North 479 551 38,000  Level Atlanta Center
Fri 10:14:17 PM 33.2994 -83.9069 356° North 479 551 38,000  Level Atlanta Center
Fri 10:15:17 PM 33.4331 -83.9144 357° North 479 551 38,000  Level Atlanta Center
Fri 10:16:17 PM 33.5708 -83.9267 356° North 479 551 38,000  Level Atlanta Center
Fri 10:17:17 PM 33.7086 -83.9339 358° North 479 551 38,000  Level Atlanta Center
Fri 10:18:17 PM 33.8297 -83.9414 357° North 484 557 38,000  Level Atlanta Center
Fri 10:19:17 PM 33.9694 -83.9511 357° North 489 563 38,000  Level Atlanta Center
Fri 10:20:17 PM 34.1072 -83.9611 357° North 496 571 38,000  Level Atlanta Center
Fri 10:21:17 PM 34.2472 -83.9733 356° North 496 571 38,000  Level Atlanta Center
Fri 10:22:17 PM 34.3869 -83.9833 357° North 502 578 38,000  Level Atlanta Center
Fri 10:23:17 PM 34.5247 -83.9933 357° North 496 571 38,000  Level Atlanta Center
Fri 10:24:17 PM 34.6814 -84.0033 357° North 501 577 38,000  Level Atlanta Center
Fri 10:25:17 PM 34.8064 -84.0161 355° North 501 577 38,000  Level Atlanta Center
Fri 10:26:17 PM 34.9464 -84.0261 357° North 501 577 38,000  Level Atlanta Center
Fri 10:27:17 PM 35.0881 -84.0361 357° North 501 577 38,000  Level Atlanta Center
Fri 10:28:17 PM 35.2300 -84.0489 356° North 501 577 38,000  Level Atlanta Center
Fri 10:29:17 PM 35.3761 -84.0592 357° North 506 582 38,000  Level Atlanta Center
Fri 10:30:17 PM 35.5181 -84.0694 357° North 506 582 38,000  Level Atlanta Center
Fri 10:31:17 PM 35.6597 -84.0769 358° North 506 582 38,000  Level Atlanta Center
Fri 10:32:17 PM 35.8058 -84.0900 356° North 516 594 38,000  Level Atlanta Center
Fri 10:33:17 PM 35.9519 -84.1003 357° North 516 594 38,000  Level Atlanta Center
Fri 10:35:00 PM 36.2050 -84.1189 357° North 519 597 38,000  Level Indianapolis Center
Fri 10:36:01 PM 36.3481 -84.1297 357° North 517 595 38,000  Level Indianapolis Center
Fri 10:37:01 PM 36.4903 -84.1400 357° North 515 593 38,000  Level Indianapolis Center
Fri 10:38:02 PM 36.6344 -84.1517 356° North 520 598 38,000  Level Indianapolis Center
Fri 10:39:03 PM 36.7783 -84.1622 357° North 515 593 38,000  Level Indianapolis Center
Fri 10:40:04 PM 36.9214 -84.1733 356° North 512 589 38,000  Level Indianapolis Center
Fri 10:41:05 PM 37.0622 -84.1844 356° North 506 582 38,000  Level Indianapolis Center
Fri 10:42:06 PM 37.2044 -84.1956 356° North 508 585 38,000  Level Indianapolis Center
Fri 10:43:07 PM 37.3706 -84.2083 357° North 508 585 38,000  Level Indianapolis Center
Fri 10:44:08 PM 37.5117 -84.2211 356° North 506 582 38,000  Level Indianapolis Center
Fri 10:45:08 PM 37.6572 -84.2297 357° North 518 596 38,000  Level Indianapolis Center
Fri 10:46:09 PM 37.7975 -84.2442 355° North 499 574 38,000  Level Indianapolis Center
Fri 10:47:10 PM 37.9389 -84.2544 357° North 503 579 38,000  Level Indianapolis Center
Fri 10:48:11 PM 38.0825 -84.2647 357° North 510 587 38,000  Level Indianapolis Center
Fri 10:49:12 PM 38.2272 -84.2744 357° North 517 595 38,000  Level Indianapolis Center
Fri 10:50:13 PM 38.3719 -84.2867 356° North 518 596 38,000  Level Indianapolis Center
Fri 10:51:14 PM 38.5158 -84.2981 356° North 518 596 38,000  Level Indianapolis Center
Fri 10:52:15 PM 38.6536 -84.3044 358° North 524 603 38,000  Level Indianapolis Center
Fri 10:53:16 PM 38.8031 -84.2839 North 534 615 38,000  Level Indianapolis Center
Fri 10:54:17 PM 38.9542 -84.2594 North 539 620 38,000  Level Indianapolis Center
Fri 10:55:18 PM 39.1039 -84.2358 North 539 620 38,000  Level Indianapolis Center
Fri 10:56:19 PM 39.2550 -84.2131 North 540 621 38,000  Level Indianapolis Center
Fri 10:57:20 PM 39.4033 -84.1881 North 533 613 38,000  Level Indianapolis Center
Fri 10:58:21 PM 39.5536 -84.1647 North 536 617 38,000  Level Indianapolis Center
Fri 10:59:22 PM 39.7033 -84.1397 North 534 615 38,000 -197 Level Indianapolis Center
Fri 11:00:23 PM 39.8531 -84.1156 North 535 616 37,600 -492 Descending Indianapolis Center
Fri 11:01:24 PM 40.0006 -84.0908 North 527 606 37,000 -295 Descending Indianapolis Center
Fri 11:02:25 PM 40.1500 -84.0656 North 529 609 37,000  Level Indianapolis Center
Fri 11:03:26 PM 40.2917 -84.0047 18° North 531 611 37,000  Level Indianapolis Center
Fri 11:04:27 PM 40.3961 -83.8567 47° Northeast 540 621 37,000  Level Indianapolis Center
Fri 11:05:28 PM 40.4906 -83.6950 52° Northeast 546 628 37,000  Level Indianapolis Center
Fri 11:06:29 PM 40.5836 -83.5317 53° Northeast 551 634 37,000  Level Indianapolis Center
Fri 11:07:09 PM 40.6489 -83.4211 52° Northeast 552 635 37,000  Level Cleveland Center
Fri 11:08:09 PM 40.7422 -83.2606 52° Northeast 547 629 37,000  Level Cleveland Center
Fri 11:09:09 PM 40.8336 -83.0997 53° Northeast 547 629 37,000  Level Cleveland Center
Fri 11:10:09 PM 40.9311 -82.9275 53° Northeast 540 621 37,000  Level Cleveland Center
Fri 11:11:09 PM 41.0219 -82.7656 53° Northeast 540 621 37,000  Level Cleveland Center
Fri 11:12:09 PM 41.1125 -82.6033 53° Northeast 540 621 37,000  Level Cleveland Center
Fri 11:13:09 PM 41.2047 -82.4406 53° Northeast 546 628 37,000  Level Cleveland Center
Fri 11:14:09 PM 41.2950 -82.2772 54° Northeast 540 621 37,000  Level Cleveland Center
Fri 11:15:09 PM 41.3786 -82.0997 58° Northeast 552 635 37,000  Level Cleveland Center
Fri 11:16:09 PM 41.4247 -81.9289 70° East 540 621 37,000  Level Cleveland Center
Fri 11:17:09 PM 41.4789 -81.7389 69° East 545 627 37,000  Level Cleveland Center
Fri 11:18:09 PM 41.5392 -81.5292 69° East 550 633 37,000  Level Cleveland Center
Fri 11:19:09 PM 41.5928 -81.3356 70° East 545 627 37,000  Level Cleveland Center
Fri 11:20:09 PM 41.6481 -81.1417 69° East 545 627 37,000  Level Cleveland Center
Fri 11:21:09 PM 41.7008 -80.9447 70° East 551 634 37,000  Level Cleveland Center
Fri 11:22:09 PM 41.7556 -80.7503 69° East 551 634 37,000  Level Cleveland Center
Fri 11:23:09 PM 41.8100 -80.5553 69° East 557 641 37,000  Level Cleveland Center
Fri 11:24:09 PM 41.8617 -80.3600 70° East 557 641 37,000  Level Cleveland Center
Fri 11:25:09 PM 41.9114 -80.1842 69° East 551 634 37,000  Level Cleveland Center
Fri 11:26:09 PM 41.9667 -79.9717 71° East 544 626 37,000  Level Cleveland Center
Fri 11:27:09 PM 42.0175 -79.7783 70° East 550 633 37,000  Level Cleveland Center
Fri 11:28:09 PM 42.0703 -79.5819 70° East 550 633 37,000  Level Cleveland Center
Fri 11:29:09 PM 42.0975 -79.3856 79° East 525 604 37,000  Level Cleveland Center
Fri 11:30:09 PM 42.0747 -79.2125 100° East 478 550 37,000  Level Cleveland Center
Fri 11:31:09 PM 42.0497 -79.0397 101° East 478 550 37,000  Level Cleveland Center
Fri 11:32:09 PM 42.0222 -78.8642 102° East 478 550 37,000  Level Cleveland Center
Fri 11:33:09 PM 41.9967 -78.6972 102° East 471 542 37,000  Level Cleveland Center
Fri 11:34:09 PM 41.9708 -78.5303 102° East 460 529 37,000  Level Cleveland Center
Fri 11:36:12 PM 41.9233 -78.2169 101° East 453 521 37,000  Level New York Center
Fri 11:37:11 PM 41.8983 -78.0494 101° East 453 521 37,000  Level New York Center
Fri 11:38:12 PM 41.8706 -77.8878 103° East 453 521 37,000  Level New York Center
Fri 11:39:12 PM 41.8322 -77.7275 108° East 453 521 37,000  Level New York Center
Fri 11:40:10 PM 41.7914 -77.5703 109° East 453 521 37,000  Level New York Center
Fri 11:41:10 PM 41.7481 -77.4158 111° Southeast 453 521 37,000  Level New York Center
Fri 11:42:11 PM 41.7064 -77.2614 110° East 448 516 37,000  Level New York Center
Fri 11:43:12 PM 41.6650 -77.1019 109° East 443 510 37,000  Level New York Center
Fri 11:44:10 PM 41.6214 -76.9422 110° East 443 510 37,000  Level New York Center
Fri 11:45:10 PM 41.5775 -76.7831 110° East 443 510 37,000  Level New York Center
Fri 11:46:11 PM 41.5336 -76.6211 110° East 437 503 37,000  Level New York Center
Fri 11:47:12 PM 41.4911 -76.4650 110° East 437 503 37,000 -496 Level New York Center
Fri 11:48:12 PM 41.4553 -76.3403 111° Southeast 443 510 36,000 -1,780 Descending New York Center
Fri 11:49:10 PM 41.4039 -76.1478 110° East 452 520 33,500 -2,288 Descending New York Center
Fri 11:50:10 PM 41.3586 -75.9922 111° Southeast 452 520 31,500 -1,835 Descending New York Center
Fri 11:51:11 PM 41.3186 -75.8592 112° Southeast 452 520 29,800 -1,884 Descending New York Center
Fri 11:52:11 PM 41.2753 -75.7014 110° East 452 520 27,700 -2,067 Descending New York Center
Fri 11:53:10 PM 41.2256 -75.5461 113° Southeast 452 520 25,700 -1,950 Descending New York Center
Fri 11:54:11 PM 41.1750 -75.3992 115° Southeast 440 506 23,800 -1,317 Descending New York Center
Fri 11:55:13 PM 41.1244 -75.2525 115° Southeast 440 506 23,000 -400 Descending New York Center
Fri 11:56:11 PM 41.0758 -75.1061 114° Southeast 435 501 23,000  Level New York Center
Fri 11:57:10 PM 41.0269 -74.9600 114° Southeast 429 494 23,000  Level New York Center
Fri 11:58:12 PM 40.9886 -74.8064 108° East 429 494 23,000  Level New York Center
Fri 11:59:10 PM 40.9711 -74.6433 98° East 435 501 23,000  Level New York Center
Sat 12:00:10 AM 40.9514 -74.4772 99° East 446 513 23,000 -1,131 Level New York Center
Sat 12:01:12 AM 40.9356 -74.3172 97° East 451 519 20,700 -2,571 Descending New York Center
Sat 12:01:41 AM 40.9167 -74.2167 104° East 440 506 19,100 -1,348 Descending New York TRACON
Sat 12:02:41 AM 40.8667 -74.1167 123° Southeast 326 375 18,700 -1,200 Descending New York TRACON
Sat 12:03:41 AM 40.8000 -74.0667 150° Southeast 297 342 16,700 -1,850 Descending New York TRACON
Sat 12:04:41 AM 40.7167 -74.0167 156° South 295 339 15,000 -1,650 Descending New York TRACON
Sat 12:05:41 AM 40.6500 -73.9833 159° South 262 302 13,400 -1,000 Descending New York TRACON
Sat 12:06:41 AM 40.5833 -73.9333 150° Southeast 275 316 13,000 -200 Descending New York TRACON
Sat 12:07:41 AM 40.5500 -73.8500 118° Southeast 336 387 13,000 -700 Level New York TRACON
Sat 12:08:41 AM 40.5833 -73.7333 69° East 392 451 11,600 -1,600 Descending New York TRACON
Sat 12:09:41 AM 40.6167 -73.6000 72° East 340 391 9,800 -2,000 Descending New York TRACON
Sat 12:10:41 AM 40.6500 -73.5000 66° East 335 386 7,600 -2,100 Descending New York TRACON
Sat 12:11:41 AM 40.7333 -73.4333 31° Northeast 331 381 5,600 -1,500 Descending New York TRACON
Sat 12:12:41 AM 40.8000 -73.4667 339° North 236 272 4,600 -1,300 Descending New York TRACON
Sat 12:13:41 AM 40.8167 -73.5333 288° West 210 242 3,000 -800 Descending New York TRACON
Sat 12:14:41 AM 40.8167 -73.6000 270° West 200 230 3,000  Level New York TRACON
Sat 12:15:41 AM 40.7833 -73.6667 237° Southwest 161 185 3,000 -250 Level New York TRACON
Sat 12:16:41 AM 40.7500 -73.7000 217° Southwest 145 167 2,500 -550 Descending New York TRACON
Sat 12:17:41 AM 40.7167 -73.7167 201° Southwest 115 132 1,900 -600 Descending New York TRACON
Sat 12:18:41 AM 40.7000 -73.7333 217° Southwest 120 138 1,300 -650 Descending New York TRACON
Sat 12:19:41 AM 40.6667 -73.7500 201° Southwest 121 139 600 -700 Descending New York TRACON
Sat 12:21:00 AM 40.6333 -73.7667 221° Southwest  Level FlightAware Approximate

Login

Don't have an account? Register now (free) for customized features, flight alerts, and more!